Nashville, Georgia
Current Conditions -  °F | °C
As of 3:03 AM on Wednesday 26 Nov 2014 (Local Time) from KVAD Reporting Station
Light Rain Light Rain  
Wind Chill: 41°   Ceiling: 700
Heat Index: 46°   Visibility: 10mi
Dew Point: 45°   Wind: 13mph
Humidity: 93%   Direction: 330°NNW
Pressure: 29.98"   Gusts: NA
Location:  31.21°N, 83.25°W
Report Text: KVAD 260803Z AUTO 33011KT 10SM -RA BKN007 OVC011 08/07 A2998 RMK AO2 CIG 007V009 BKN V OVC $
Loading
Personal Weather Stations






























Interactive Weather Map New forecast layout! Learn more

10-Day Weather Forecast

Advertisements
Track Severe Weather on mobile